sensor_id;sensor_type;location;lat;lon;timestamp;temperature;humidity
15690;DHT22;7945;48.816;11.506;2022-08-30T00:01:58;21.00;97.70
15690;DHT22;7945;48.816;11.506;2022-08-30T00:04:24;21.00;97.70
15690;DHT22;7945;48.816;11.506;2022-08-30T00:06:52;21.00;97.40
15690;DHT22;7945;48.816;11.506;2022-08-30T00:09:19;21.00;97.40
15690;DHT22;7945;48.816;11.506;2022-08-30T00:11:45;21.00;97.40
15690;DHT22;7945;48.816;11.506;2022-08-30T00:14:12;21.00;97.30
15690;DHT22;7945;48.816;11.506;2022-08-30T00:16:39;21.00;97.60
15690;DHT22;7945;48.816;11.506;2022-08-30T00:19:07;21.00;97.40
15690;DHT22;7945;48.816;11.506;2022-08-30T00:21:34;20.90;97.30
15690;DHT22;7945;48.816;11.506;2022-08-30T00:24:01;20.90;97.30
15690;DHT22;7945;48.816;11.506;2022-08-30T00:26:29;20.90;97.30
15690;DHT22;7945;48.816;11.506;2022-08-30T00:28:56;20.80;97.40
15690;DHT22;7945;48.816;11.506;2022-08-30T00:31:23;20.70;97.90
15690;DHT22;7945;48.816;11.506;2022-08-30T00:33:50;20.70;97.70
15690;DHT22;7945;48.816;11.506;2022-08-30T00:36:18;20.70;98.10
15690;DHT22;7945;48.816;11.506;2022-08-30T00:38:45;20.60;97.70
15690;DHT22;7945;48.816;11.506;2022-08-30T00:41:12;20.60;97.80
15690;DHT22;7945;48.816;11.506;2022-08-30T00:43:39;20.50;97.80
15690;DHT22;7945;48.816;11.506;2022-08-30T00:46:06;20.50;97.80
15690;DHT22;7945;48.816;11.506;2022-08-30T00:48:38;20.50;97.80
15690;DHT22;7945;48.816;11.506;2022-08-30T00:51:08;20.50;98.10
15690;DHT22;7945;48.816;11.506;2022-08-30T00:53:40;20.50;98.00
15690;DHT22;7945;48.816;11.506;2022-08-30T00:56:09;20.50;98.10
15690;DHT22;7945;48.816;11.506;2022-08-30T00:58:39;20.40;98.40
15690;DHT22;7945;48.816;11.506;2022-08-30T01:01:07;20.40;98.10
15690;DHT22;7945;48.816;11.506;2022-08-30T01:03:36;20.40;98.20
15690;DHT22;7945;48.816;11.506;2022-08-30T01:06:04;20.30;98.10
15690;DHT22;7945;48.816;11.506;2022-08-30T01:08:32;20.30;98.20
15690;DHT22;7945;48.816;11.506;2022-08-30T01:11:02;20.30;98.20
15690;DHT22;7945;48.816;11.506;2022-08-30T01:13:30;20.30;98.20
15690;DHT22;7945;48.816;11.506;2022-08-30T01:15:59;20.30;98.30
15690;DHT22;7945;48.816;11.506;2022-08-30T01:18:26;20.20;98.30
15690;DHT22;7945;48.816;11.506;2022-08-30T01:20:58;20.20;98.30
15690;DHT22;7945;48.816;11.506;2022-08-30T01:23:31;20.20;98.40
15690;DHT22;7945;48.816;11.506;2022-08-30T01:25:59;20.20;98.40
15690;DHT22;7945;48.816;11.506;2022-08-30T01:28:29;20.10;98.40
15690;DHT22;7945;48.816;11.506;2022-08-30T01:30:56;20.10;98.40
15690;DHT22;7945;48.816;11.506;2022-08-30T01:33:23;20.10;98.40
15690;DHT22;7945;48.816;11.506;2022-08-30T01:35:55;20.10;98.40
15690;DHT22;7945;48.816;11.506;2022-08-30T01:38:24;20.10;98.50
15690;DHT22;7945;48.816;11.506;2022-08-30T01:40:57;20.10;98.50
15690;DHT22;7945;48.816;11.506;2022-08-30T01:43:25;20.10;98.50
15690;DHT22;7945;48.816;11.506;2022-08-30T01:45:52;20.10;98.50
15690;DHT22;7945;48.816;11.506;2022-08-30T01:48:19;20.10;98.60
15690;DHT22;7945;48.816;11.506;2022-08-30T01:50:46;20.00;98.60
15690;DHT22;7945;48.816;11.506;2022-08-30T01:53:14;20.10;98.50
15690;DHT22;7945;48.816;11.506;2022-08-30T01:55:41;20.00;98.60
15690;DHT22;7945;48.816;11.506;2022-08-30T01:58:09;20.00;98.70
15690;DHT22;7945;48.816;11.506;2022-08-30T02:00:36;20.00;98.70
15690;DHT22;7945;48.816;11.506;2022-08-30T02:03:03;19.90;98.70
15690;DHT22;7945;48.816;11.506;2022-08-30T02:05:30;19.90;99.00
15690;DHT22;7945;48.816;11.506;2022-08-30T02:07:57;19.80;98.80
15690;DHT22;7945;48.816;11.506;2022-08-30T02:10:25;19.80;98.90
15690;DHT22;7945;48.816;11.506;2022-08-30T02:12:53;19.80;98.90
15690;DHT22;7945;48.816;11.506;2022-08-30T02:15:21;19.80;99.00
15690;DHT22;7945;48.816;11.506;2022-08-30T02:17:48;19.80;99.00
15690;DHT22;7945;48.816;11.506;2022-08-30T02:20:14;19.80;99.00
15690;DHT22;7945;48.816;11.506;2022-08-30T02:22:41;19.70;99.00
15690;DHT22;7945;48.816;11.506;2022-08-30T02:25:09;19.70;99.30
15690;DHT22;7945;48.816;11.506;2022-08-30T02:27:36;19.60;99.00
15690;DHT22;7945;48.816;11.506;2022-08-30T02:30:04;19.60;99.10
15690;DHT22;7945;48.816;11.506;2022-08-30T02:32:33;19.60;99.10
15690;DHT22;7945;48.816;11.506;2022-08-30T02:35:00;19.60;99.10
15690;DHT22;7945;48.816;11.506;2022-08-30T02:37:27;19.60;99.20
15690;DHT22;7945;48.816;11.506;2022-08-30T02:39:53;19.50;99.10
15690;DHT22;7945;48.816;11.506;2022-08-30T02:42:20;19.50;99.20
15690;DHT22;7945;48.816;11.506;2022-08-30T02:44:47;19.50;99.60
15690;DHT22;7945;48.816;11.506;2022-08-30T02:47:14;19.50;99.30
15690;DHT22;7945;48.816;11.506;2022-08-30T02:49:42;19.50;99.40
15690;DHT22;7945;48.816;11.506;2022-08-30T02:52:09;19.50;99.40
15690;DHT22;7945;48.816;11.506;2022-08-30T02:54:36;19.40;99.40
15690;DHT22;7945;48.816;11.506;2022-08-30T02:57:03;19.40;99.40
15690;DHT22;7945;48.816;11.506;2022-08-30T02:59:31;19.30;99.80
15690;DHT22;7945;48.816;11.506;2022-08-30T03:02:01;19.30;99.50
15690;DHT22;7945;48.816;11.506;2022-08-30T03:04:28;19.30;99.50
15690;DHT22;7945;48.816;11.506;2022-08-30T03:06:56;19.30;99.60
15690;DHT22;7945;48.816;11.506;2022-08-30T03:09:23;19.20;99.60
15690;DHT22;7945;48.816;11.506;2022-08-30T03:11:50;19.20;99.70
15690;DHT22;7945;48.816;11.506;2022-08-30T03:14:17;19.30;99.60
15690;DHT22;7945;48.816;11.506;2022-08-30T03:16:44;19.20;99.50
15690;DHT22;7945;48.816;11.506;2022-08-30T03:19:10;19.20;99.60
15690;DHT22;7945;48.816;11.506;2022-08-30T03:21:37;19.20;99.60
15690;DHT22;7945;48.816;11.506;2022-08-30T03:24:06;19.20;99.60
15690;DHT22;7945;48.816;11.506;2022-08-30T03:26:33;19.20;99.70
15690;DHT22;7945;48.816;11.506;2022-08-30T03:29:00;19.20;99.70
15690;DHT22;7945;48.816;11.506;2022-08-30T03:31:27;19.10;99.70
15690;DHT22;7945;48.816;11.506;2022-08-30T03:33:54;19.10;99.80
15690;DHT22;7945;48.816;11.506;2022-08-30T03:36:21;19.10;99.80
15690;DHT22;7945;48.816;11.506;2022-08-30T03:38:48;19.10;99.70
15690;DHT22;7945;48.816;11.506;2022-08-30T03:41:16;19.00;99.90
15690;DHT22;7945;48.816;11.506;2022-08-30T03:43:43;19.00;99.80
15690;DHT22;7945;48.816;11.506;2022-08-30T03:46:11;19.00;99.80
15690;DHT22;7945;48.816;11.506;2022-08-30T03:48:38;18.90;99.80
15690;DHT22;7945;48.816;11.506;2022-08-30T03:51:05;18.90;99.80
15690;DHT22;7945;48.816;11.506;2022-08-30T03:53:33;18.90;99.80
15690;DHT22;7945;48.816;11.506;2022-08-30T03:56:00;18.90;99.80
15690;DHT22;7945;48.816;11.506;2022-08-30T03:58:28;18.90;99.80
15690;DHT22;7945;48.816;11.506;2022-08-30T04:00:55;18.90;99.80
15690;DHT22;7945;48.816;11.506;2022-08-30T04:03:22;18.90;99.90
15690;DHT22;7945;48.816;11.506;2022-08-30T04:05:50;18.90;99.90
15690;DHT22;7945;48.816;11.506;2022-08-30T04:08:18;18.90;99.90
15690;DHT22;7945;48.816;11.506;2022-08-30T04:10:45;18.90;99.90
15690;DHT22;7945;48.816;11.506;2022-08-30T04:13:13;18.90;99.90
15690;DHT22;7945;48.816;11.506;2022-08-30T04:15:41;18.80;99.80
15690;DHT22;7945;48.816;11.506;2022-08-30T04:18:08;18.90;99.90
15690;DHT22;7945;48.816;11.506;2022-08-30T04:20:35;18.80;99.90
15690;DHT22;7945;48.816;11.506;2022-08-30T04:23:03;18.80;99.90
15690;DHT22;7945;48.816;11.506;2022-08-30T04:25:31;18.80;99.90
15690;DHT22;7945;48.816;11.506;2022-08-30T04:27:58;18.80;99.90
15690;DHT22;7945;48.816;11.506;2022-08-30T04:30:25;18.90;99.90
15690;DHT22;7945;48.816;11.506;2022-08-30T04:32:53;18.90;99.90
15690;DHT22;7945;48.816;11.506;2022-08-30T04:35:21;18.80;99.90
15690;DHT22;7945;48.816;11.506;2022-08-30T04:37:47;18.80;99.90
15690;DHT22;7945;48.816;11.506;2022-08-30T04:40:14;18.80;99.90
15690;DHT22;7945;48.816;11.506;2022-08-30T04:42:42;18.70;99.90
15690;DHT22;7945;48.816;11.506;2022-08-30T04:45:12;18.70;99.90
15690;DHT22;7945;48.816;11.506;2022-08-30T04:47:41;18.70;99.90
15690;DHT22;7945;48.816;11.506;2022-08-30T04:50:11;18.70;99.90
15690;DHT22;7945;48.816;11.506;2022-08-30T04:52:39;18.80;99.90
15690;DHT22;7945;48.816;11.506;2022-08-30T04:55:07;18.80;99.90
15690;DHT22;7945;48.816;11.506;2022-08-30T04:57:35;18.80;99.90
15690;DHT22;7945;48.816;11.506;2022-08-30T05:00:04;18.90;99.90
15690;DHT22;7945;48.816;11.506;2022-08-30T05:02:32;18.90;99.90
15690;DHT22;7945;48.816;11.506;2022-08-30T05:05:00;18.90;99.90
15690;DHT22;7945;48.816;11.506;2022-08-30T05:07:45;19.00;99.90
15690;DHT22;7945;48.816;11.506;2022-08-30T05:10:12;19.10;99.90
15690;DHT22;7945;48.816;11.506;2022-08-30T05:12:40;19.50;99.70
15690;DHT22;7945;48.816;11.506;2022-08-30T05:15:09;20.20;98.80
15690;DHT22;7945;48.816;11.506;2022-08-30T05:17:36;21.00;97.80
15690;DHT22;7945;48.816;11.506;2022-08-30T05:20:04;21.60;97.10
15690;DHT22;7945;48.816;11.506;2022-08-30T05:22:31;22.10;96.10
15690;DHT22;7945;48.816;11.506;2022-08-30T05:25:02;22.60;95.40
15690;DHT22;7945;48.816;11.506;2022-08-30T05:27:29;23.00;94.70
15690;DHT22;7945;48.816;11.506;2022-08-30T05:29:56;23.30;94.30
15690;DHT22;7945;48.816;11.506;2022-08-30T05:32:23;23.70;93.90
15690;DHT22;7945;48.816;11.506;2022-08-30T05:34:50;23.80;93.40
15690;DHT22;7945;48.816;11.506;2022-08-30T05:37:17;23.80;93.50
15690;DHT22;7945;48.816;11.506;2022-08-30T05:39:44;23.90;93.50
15690;DHT22;7945;48.816;11.506;2022-08-30T05:42:12;24.10;93.20
15690;DHT22;7945;48.816;11.506;2022-08-30T05:44:39;24.40;92.80
15690;DHT22;7945;48.816;11.506;2022-08-30T05:47:06;24.80;92.40
15690;DHT22;7945;48.816;11.506;2022-08-30T05:49:33;25.20;92.00
15690;DHT22;7945;48.816;11.506;2022-08-30T05:51:59;25.60;91.50
15690;DHT22;7945;48.816;11.506;2022-08-30T05:54:26;25.90;91.20
15690;DHT22;7945;48.816;11.506;2022-08-30T05:56:53;26.20;90.60
15690;DHT22;7945;48.816;11.506;2022-08-30T05:59:21;26.60;90.20
15690;DHT22;7945;48.816;11.506;2022-08-30T06:01:48;26.90;89.30
15690;DHT22;7945;48.816;11.506;2022-08-30T06:04:15;27.20;88.90
15690;DHT22;7945;48.816;11.506;2022-08-30T06:06:43;27.10;89.30
15690;DHT22;7945;48.816;11.506;2022-08-30T06:09:11;26.50;90.10
15690;DHT22;7945;48.816;11.506;2022-08-30T06:14:46;24.80;91.70
15690;DHT22;7945;48.816;11.506;2022-08-30T06:17:13;24.20;93.10
15690;DHT22;7945;48.816;11.506;2022-08-30T06:19:40;23.70;93.90
15690;DHT22;7945;48.816;11.506;2022-08-30T06:22:07;23.30;94.70
15690;DHT22;7945;48.816;11.506;2022-08-30T06:24:34;23.00;95.30
15690;DHT22;7945;48.816;11.506;2022-08-30T06:27:01;23.00;95.50
15690;DHT22;7945;48.816;11.506;2022-08-30T06:29:28;23.00;95.60
15690;DHT22;7945;48.816;11.506;2022-08-30T06:31:56;23.00;95.50
15690;DHT22;7945;48.816;11.506;2022-08-30T06:34:23;23.10;95.50
15690;DHT22;7945;48.816;11.506;2022-08-30T06:36:51;23.20;96.00
15690;DHT22;7945;48.816;11.506;2022-08-30T06:39:18;23.10;95.60
15690;DHT22;7945;48.816;11.506;2022-08-30T06:41:45;23.00;95.80
15690;DHT22;7945;48.816;11.506;2022-08-30T06:44:12;22.90;96.30
15690;DHT22;7945;48.816;11.506;2022-08-30T06:46:39;22.80;96.10
15690;DHT22;7945;48.816;11.506;2022-08-30T06:49:07;22.60;96.40
15690;DHT22;7945;48.816;11.506;2022-08-30T06:51:36;22.50;96.80
15690;DHT22;7945;48.816;11.506;2022-08-30T06:54:05;22.30;96.80
15690;DHT22;7945;48.816;11.506;2022-08-30T06:56:32;22.20;97.50
15690;DHT22;7945;48.816;11.506;2022-08-30T06:58:59;22.10;97.50
15690;DHT22;7945;48.816;11.506;2022-08-30T07:01:28;22.00;97.70
15690;DHT22;7945;48.816;11.506;2022-08-30T07:03:55;22.00;97.90
15690;DHT22;7945;48.816;11.506;2022-08-30T07:06:24;21.90;97.60
15690;DHT22;7945;48.816;11.506;2022-08-30T07:08:52;21.90;97.70
15690;DHT22;7945;48.816;11.506;2022-08-30T07:11:27;21.90;98.00
15690;DHT22;7945;48.816;11.506;2022-08-30T07:13:55;21.90;98.00
15690;DHT22;7945;48.816;11.506;2022-08-30T07:16:22;21.90;98.00
15690;DHT22;7945;48.816;11.506;2022-08-30T07:18:49;21.80;98.10
15690;DHT22;7945;48.816;11.506;2022-08-30T07:21:16;21.70;98.20
15690;DHT22;7945;48.816;11.506;2022-08-30T07:23:46;21.60;98.80
15690;DHT22;7945;48.816;11.506;2022-08-30T07:26:16;21.70;98.60
15690;DHT22;7945;48.816;11.506;2022-08-30T07:28:44;21.80;98.60
15690;DHT22;7945;48.816;11.506;2022-08-30T07:31:12;21.90;98.40
15690;DHT22;7945;48.816;11.506;2022-08-30T07:33:40;22.00;98.50
15690;DHT22;7945;48.816;11.506;2022-08-30T07:36:07;22.00;98.20
15690;DHT22;7945;48.816;11.506;2022-08-30T07:38:34;22.10;98.10
15690;DHT22;7945;48.816;11.506;2022-08-30T07:41:03;22.00;98.20
15690;DHT22;7945;48.816;11.506;2022-08-30T07:43:31;22.00;98.50
15690;DHT22;7945;48.816;11.506;2022-08-30T07:46:00;22.00;98.60
15690;DHT22;7945;48.816;11.506;2022-08-30T07:48:27;22.10;98.50
15690;DHT22;7945;48.816;11.506;2022-08-30T07:50:54;22.20;98.50
15690;DHT22;7945;48.816;11.506;2022-08-30T07:53:22;22.20;98.60
15690;DHT22;7945;48.816;11.506;2022-08-30T07:55:49;22.30;98.30
15690;DHT22;7945;48.816;11.506;2022-08-30T07:58:17;22.30;98.50
15690;DHT22;7945;48.816;11.506;2022-08-30T08:00:44;22.30;98.50
15690;DHT22;7945;48.816;11.506;2022-08-30T08:03:11;22.30;98.40
15690;DHT22;7945;48.816;11.506;2022-08-30T08:05:39;22.40;98.50
15690;DHT22;7945;48.816;11.506;2022-08-30T08:08:06;22.50;98.30
15690;DHT22;7945;48.816;11.506;2022-08-30T08:10:35;22.60;98.20
15690;DHT22;7945;48.816;11.506;2022-08-30T08:13:02;22.70;97.80
15690;DHT22;7945;48.816;11.506;2022-08-30T08:15:31;22.80;97.60
15690;DHT22;7945;48.816;11.506;2022-08-30T08:17:58;22.80;98.10
15690;DHT22;7945;48.816;11.506;2022-08-30T08:20:25;22.80;97.60
15690;DHT22;7945;48.816;11.506;2022-08-30T08:22:52;22.90;97.80
15690;DHT22;7945;48.816;11.506;2022-08-30T08:25:19;22.90;97.60
15690;DHT22;7945;48.816;11.506;2022-08-30T08:27:46;22.90;97.70
15690;DHT22;7945;48.816;11.506;2022-08-30T08:30:15;23.00;97.80
15690;DHT22;7945;48.816;11.506;2022-08-30T08:32:43;23.10;98.00
15690;DHT22;7945;48.816;11.506;2022-08-30T08:35:10;23.20;97.70
15690;DHT22;7945;48.816;11.506;2022-08-30T08:37:38;23.30;97.30
15690;DHT22;7945;48.816;11.506;2022-08-30T08:40:07;23.30;97.10
15690;DHT22;7945;48.816;11.506;2022-08-30T08:43:00;23.30;97.30
15690;DHT22;7945;48.816;11.506;2022-08-30T08:45:39;23.40;97.30
15690;DHT22;7945;48.816;11.506;2022-08-30T08:48:13;23.50;97.20
15690;DHT22;7945;48.816;11.506;2022-08-30T08:50:45;23.50;97.10
15690;DHT22;7945;48.816;11.506;2022-08-30T08:53:32;23.50;96.90
15690;DHT22;7945;48.816;11.506;2022-08-30T08:56:05;23.60;96.80
15690;DHT22;7945;48.816;11.506;2022-08-30T08:58:38;23.60;96.70
15690;DHT22;7945;48.816;11.506;2022-08-30T09:01:08;23.70;96.80
15690;DHT22;7945;48.816;11.506;2022-08-30T09:03:36;23.70;96.60
15690;DHT22;7945;48.816;11.506;2022-08-30T09:06:10;23.80;96.60
15690;DHT22;7945;48.816;11.506;2022-08-30T09:08:42;23.90;96.30
15690;DHT22;7945;48.816;11.506;2022-08-30T09:11:10;24.00;96.20
15690;DHT22;7945;48.816;11.506;2022-08-30T09:13:42;24.10;96.10
15690;DHT22;7945;48.816;11.506;2022-08-30T09:16:08;24.20;95.80
15690;DHT22;7945;48.816;11.506;2022-08-30T09:18:43;24.20;96.00
15690;DHT22;7945;48.816;11.506;2022-08-30T09:21:11;24.30;95.70
15690;DHT22;7945;48.816;11.506;2022-08-30T09:23:47;24.40;95.80
15690;DHT22;7945;48.816;11.506;2022-08-30T09:26:14;24.50;95.00
15690;DHT22;7945;48.816;11.506;2022-08-30T09:28:52;24.50;95.30
15690;DHT22;7945;48.816;11.506;2022-08-30T09:31:21;24.70;94.70
15690;DHT22;7945;48.816;11.506;2022-08-30T09:33:55;24.80;94.60
15690;DHT22;7945;48.816;11.506;2022-08-30T09:36:24;24.90;94.00
15690;DHT22;7945;48.816;11.506;2022-08-30T09:38:59;25.20;94.50
15690;DHT22;7945;48.816;11.506;2022-08-30T09:41:29;25.40;93.90
15690;DHT22;7945;48.816;11.506;2022-08-30T09:44:06;25.60;93.90
15690;DHT22;7945;48.816;11.506;2022-08-30T09:46:36;25.70;92.60
15690;DHT22;7945;48.816;11.506;2022-08-30T09:49:27;25.90;92.60
15690;DHT22;7945;48.816;11.506;2022-08-30T09:52:02;26.20;92.30
15690;DHT22;7945;48.816;11.506;2022-08-30T09:54:35;26.30;91.70
15690;DHT22;7945;48.816;11.506;2022-08-30T09:57:12;26.30;91.90
15690;DHT22;7945;48.816;11.506;2022-08-30T09:59:49;26.40;92.20
15690;DHT22;7945;48.816;11.506;2022-08-30T10:02:40;26.50;91.00
15690;DHT22;7945;48.816;11.506;2022-08-30T10:05:16;26.60;91.10
15690;DHT22;7945;48.816;11.506;2022-08-30T10:07:50;26.80;91.10
15690;DHT22;7945;48.816;11.506;2022-08-30T10:10:28;26.80;90.60
15690;DHT22;7945;48.816;11.506;2022-08-30T10:13:05;26.90;90.50
15690;DHT22;7945;48.816;11.506;2022-08-30T10:15:41;27.00;90.10
15690;DHT22;7945;48.816;11.506;2022-08-30T10:18:17;27.10;90.00
15690;DHT22;7945;48.816;11.506;2022-08-30T10:20:55;27.30;89.90
15690;DHT22;7945;48.816;11.506;2022-08-30T10:23:27;27.40;89.40
15690;DHT22;7945;48.816;11.506;2022-08-30T10:25:59;27.50;88.60
15690;DHT22;7945;48.816;11.506;2022-08-30T10:28:34;27.40;88.00
15690;DHT22;7945;48.816;11.506;2022-08-30T10:31:06;27.40;87.80
15690;DHT22;7945;48.816;11.506;2022-08-30T10:33:36;27.50;87.60
15690;DHT22;7945;48.816;11.506;2022-08-30T10:36:10;27.60;88.30
15690;DHT22;7945;48.816;11.506;2022-08-30T10:38:39;27.70;85.80
15690;DHT22;7945;48.816;11.506;2022-08-30T10:41:19;27.70;85.80
15690;DHT22;7945;48.816;11.506;2022-08-30T10:43:53;27.80;85.60
15690;DHT22;7945;48.816;11.506;2022-08-30T10:46:26;27.90;84.10
15690;DHT22;7945;48.816;11.506;2022-08-30T10:48:55;27.90;84.70
15690;DHT22;7945;48.816;11.506;2022-08-30T10:51:30;28.00;82.00
15690;DHT22;7945;48.816;11.506;2022-08-30T10:54:07;27.90;81.70
15690;DHT22;7945;48.816;11.506;2022-08-30T10:56:36;27.80;82.70
15690;DHT22;7945;48.816;11.506;2022-08-30T10:59:05;27.80;81.50
15690;DHT22;7945;48.816;11.506;2022-08-30T11:01:56;27.80;81.10
15690;DHT22;7945;48.816;11.506;2022-08-30T11:04:40;27.90;81.10
15690;DHT22;7945;48.816;11.506;2022-08-30T11:07:20;28.00;80.90
15690;DHT22;7945;48.816;11.506;2022-08-30T11:10:03;28.10;79.20
15690;DHT22;7945;48.816;11.506;2022-08-30T11:12:35;28.30;79.30
15690;DHT22;7945;48.816;11.506;2022-08-30T11:15:14;28.40;80.50
15690;DHT22;7945;48.816;11.506;2022-08-30T11:17:45;28.50;80.50
15690;DHT22;7945;48.816;11.506;2022-08-30T11:20:29;28.60;81.00
15690;DHT22;7945;48.816;11.506;2022-08-30T11:23:27;28.80;80.20
15690;DHT22;7945;48.816;11.506;2022-08-30T11:25:56;28.90;80.00
15690;DHT22;7945;48.816;11.506;2022-08-30T11:31:40;28.90;78.80
15690;DHT22;7945;48.816;11.506;2022-08-30T11:34:07;28.90;78.30
15690;DHT22;7945;48.816;11.506;2022-08-30T11:37:05;29.00;79.40
15690;DHT22;7945;48.816;11.506;2022-08-30T11:39:53;29.10;78.40
15690;DHT22;7945;48.816;11.506;2022-08-30T11:42:36;29.30;77.90
15690;DHT22;7945;48.816;11.506;2022-08-30T11:48:07;29.40;76.00
15690;DHT22;7945;48.816;11.506;2022-08-30T11:50:59;29.20;76.30
15690;DHT22;7945;48.816;11.506;2022-08-30T11:53:32;28.90;76.10
15690;DHT22;7945;48.816;11.506;2022-08-30T11:56:07;28.70;77.50
15690;DHT22;7945;48.816;11.506;2022-08-30T11:58:45;28.50;77.90
15690;DHT22;7945;48.816;11.506;2022-08-30T12:01:21;28.60;77.80
15690;DHT22;7945;48.816;11.506;2022-08-30T12:04:00;28.50;76.40
15690;DHT22;7945;48.816;11.506;2022-08-30T12:06:49;28.50;77.80
15690;DHT22;7945;48.816;11.506;2022-08-30T12:12:48;28.60;75.20
15690;DHT22;7945;48.816;11.506;2022-08-30T12:18:36;28.60;74.40
15690;DHT22;7945;48.816;11.506;2022-08-30T12:21:10;28.50;74.50
15690;DHT22;7945;48.816;11.506;2022-08-30T12:23:45;28.70;74.10
15690;DHT22;7945;48.816;11.506;2022-08-30T12:26:27;28.70;74.00
15690;DHT22;7945;48.816;11.506;2022-08-30T12:29:08;28.70;74.70
15690;DHT22;7945;48.816;11.506;2022-08-30T12:31:39;28.80;74.80
15690;DHT22;7945;48.816;11.506;2022-08-30T12:34:07;28.90;75.20
15690;DHT22;7945;48.816;11.506;2022-08-30T12:36:38;29.20;74.90
15690;DHT22;7945;48.816;11.506;2022-08-30T12:39:08;29.20;74.60
15690;DHT22;7945;48.816;11.506;2022-08-30T12:41:35;29.30;74.70
15690;DHT22;7945;48.816;11.506;2022-08-30T12:44:02;29.30;74.00
15690;DHT22;7945;48.816;11.506;2022-08-30T12:46:31;29.40;74.40
15690;DHT22;7945;48.816;11.506;2022-08-30T12:48:58;29.50;73.80
15690;DHT22;7945;48.816;11.506;2022-08-30T12:51:34;29.50;72.70
15690;DHT22;7945;48.816;11.506;2022-08-30T12:54:16;29.20;73.40
15690;DHT22;7945;48.816;11.506;2022-08-30T12:56:47;29.00;73.70
15690;DHT22;7945;48.816;11.506;2022-08-30T12:59:43;28.90;73.60
15690;DHT22;7945;48.816;11.506;2022-08-30T13:02:14;28.70;74.50
15690;DHT22;7945;48.816;11.506;2022-08-30T13:04:42;28.70;74.30
15690;DHT22;7945;48.816;11.506;2022-08-30T13:07:09;28.60;74.60
15690;DHT22;7945;48.816;11.506;2022-08-30T13:09:38;28.50;74.90
15690;DHT22;7945;48.816;11.506;2022-08-30T13:12:08;28.30;74.80
15690;DHT22;7945;48.816;11.506;2022-08-30T13:14:38;28.20;75.40
15690;DHT22;7945;48.816;11.506;2022-08-30T13:17:20;28.10;75.70
15690;DHT22;7945;48.816;11.506;2022-08-30T13:19:57;28.00;76.00
15690;DHT22;7945;48.816;11.506;2022-08-30T13:22:26;27.90;75.10
15690;DHT22;7945;48.816;11.506;2022-08-30T13:24:54;27.90;75.80
15690;DHT22;7945;48.816;11.506;2022-08-30T13:27:21;27.90;76.30
15690;DHT22;7945;48.816;11.506;2022-08-30T13:29:48;27.90;75.40
15690;DHT22;7945;48.816;11.506;2022-08-30T13:32:15;27.80;75.50
15690;DHT22;7945;48.816;11.506;2022-08-30T13:34:44;27.80;75.70
15690;DHT22;7945;48.816;11.506;2022-08-30T13:37:14;27.80;75.90
15690;DHT22;7945;48.816;11.506;2022-08-30T13:39:41;27.90;75.20
15690;DHT22;7945;48.816;11.506;2022-08-30T13:42:08;27.90;75.00
15690;DHT22;7945;48.816;11.506;2022-08-30T13:44:35;27.90;76.00
15690;DHT22;7945;48.816;11.506;2022-08-30T13:47:02;27.90;76.40
15690;DHT22;7945;48.816;11.506;2022-08-30T13:49:32;27.90;75.70
15690;DHT22;7945;48.816;11.506;2022-08-30T13:52:01;27.90;76.40
15690;DHT22;7945;48.816;11.506;2022-08-30T13:54:29;27.90;75.70
15690;DHT22;7945;48.816;11.506;2022-08-30T13:56:56;27.90;75.70
15690;DHT22;7945;48.816;11.506;2022-08-30T13:59:24;27.80;76.40
15690;DHT22;7945;48.816;11.506;2022-08-30T14:01:52;27.80;75.20
15690;DHT22;7945;48.816;11.506;2022-08-30T14:04:20;27.90;75.30
15690;DHT22;7945;48.816;11.506;2022-08-30T14:06:47;27.90;74.80
15690;DHT22;7945;48.816;11.506;2022-08-30T14:09:15;27.90;74.50
15690;DHT22;7945;48.816;11.506;2022-08-30T14:11:42;27.90;75.20
15690;DHT22;7945;48.816;11.506;2022-08-30T14:14:10;27.90;74.70
15690;DHT22;7945;48.816;11.506;2022-08-30T14:16:39;27.90;76.40
15690;DHT22;7945;48.816;11.506;2022-08-30T14:19:06;27.80;76.40
15690;DHT22;7945;48.816;11.506;2022-08-30T14:21:34;27.80;75.10
15690;DHT22;7945;48.816;11.506;2022-08-30T14:24:01;27.70;74.80
15690;DHT22;7945;48.816;11.506;2022-08-30T14:26:35;27.70;75.40
15690;DHT22;7945;48.816;11.506;2022-08-30T14:29:04;27.70;73.60
15690;DHT22;7945;48.816;11.506;2022-08-30T14:31:32;27.70;74.10
15690;DHT22;7945;48.816;11.506;2022-08-30T14:33:59;27.60;74.40
15690;DHT22;7945;48.816;11.506;2022-08-30T14:36:26;27.70;73.80
15690;DHT22;7945;48.816;11.506;2022-08-30T14:38:53;27.70;75.60
15690;DHT22;7945;48.816;11.506;2022-08-30T14:41:20;27.60;73.80
15690;DHT22;7945;48.816;11.506;2022-08-30T14:43:49;27.60;74.20
15690;DHT22;7945;48.816;11.506;2022-08-30T14:46:16;27.60;75.90
15690;DHT22;7945;48.816;11.506;2022-08-30T14:48:42;27.70;76.40
15690;DHT22;7945;48.816;11.506;2022-08-30T14:51:14;27.70;75.20
15690;DHT22;7945;48.816;11.506;2022-08-30T14:53:42;27.70;75.60
15690;DHT22;7945;48.816;11.506;2022-08-30T14:56:11;27.70;72.70
15690;DHT22;7945;48.816;11.506;2022-08-30T14:58:38;27.70;71.80
15690;DHT22;7945;48.816;11.506;2022-08-30T15:01:07;27.80;72.30
15690;DHT22;7945;48.816;11.506;2022-08-30T15:03:35;27.80;71.50
15690;DHT22;7945;48.816;11.506;2022-08-30T15:06:02;27.80;71.60
15690;DHT22;7945;48.816;11.506;2022-08-30T15:08:29;27.80;71.50
15690;DHT22;7945;48.816;11.506;2022-08-30T15:10:57;27.90;71.60
15690;DHT22;7945;48.816;11.506;2022-08-30T15:13:24;28.00;71.80
15690;DHT22;7945;48.816;11.506;2022-08-30T15:15:51;28.20;71.70
15690;DHT22;7945;48.816;11.506;2022-08-30T15:18:19;28.30;71.00
15690;DHT22;7945;48.816;11.506;2022-08-30T15:20:48;28.40;70.10
15690;DHT22;7945;48.816;11.506;2022-08-30T15:23:15;28.30;71.00
15690;DHT22;7945;48.816;11.506;2022-08-30T15:25:43;28.30;72.60
15690;DHT22;7945;48.816;11.506;2022-08-30T15:28:09;28.20;71.30
15690;DHT22;7945;48.816;11.506;2022-08-30T15:30:36;28.20;71.80
15690;DHT22;7945;48.816;11.506;2022-08-30T15:33:03;28.20;71.80
15690;DHT22;7945;48.816;11.506;2022-08-30T15:35:31;28.10;72.50
15690;DHT22;7945;48.816;11.506;2022-08-30T15:37:58;28.10;71.90
15690;DHT22;7945;48.816;11.506;2022-08-30T15:40:25;28.00;72.40
15690;DHT22;7945;48.816;11.506;2022-08-30T15:42:54;27.90;72.90
15690;DHT22;7945;48.816;11.506;2022-08-30T15:45:21;27.90;73.10
15690;DHT22;7945;48.816;11.506;2022-08-30T15:47:48;27.80;71.90
15690;DHT22;7945;48.816;11.506;2022-08-30T15:50:15;27.80;73.30
15690;DHT22;7945;48.816;11.506;2022-08-30T15:52:43;27.70;72.00
15690;DHT22;7945;48.816;11.506;2022-08-30T15:55:10;27.60;72.60
15690;DHT22;7945;48.816;11.506;2022-08-30T15:57:37;27.60;72.10
15690;DHT22;7945;48.816;11.506;2022-08-30T16:00:04;27.50;73.20
15690;DHT22;7945;48.816;11.506;2022-08-30T16:02:32;27.40;73.90